Portada
METAR-TAF:

METAR-TAF

Aeroports :

Shimojishima, Japó

latitud: 24-50N, longitud: 125-09E, altitud: 16 m

Observació

L'informe es va fer fa 10 hores i 54 minuts, a les 10:00 UTC
Vent 13 kt del Nord/Nord-Oest
Temperatura 26°C
Humitat 74%
Pressió 1011 hPa
Visibilitat 10 km o més
Escasses núvols a una alçada de 2400 ft
Cel ennuvolat a una alçada de 6000 ft
pluja

METAR: RORS 221000Z 34013KT 9999 -RA FEW024 BKN060 26/21 Q1011

Hora: 05:54 (20:54 UTC)


TAF: manca

Observacions i pronòstics meteorològics de més de 4000 aeroports (METAR i TAF).

Les estacions disponibles són els punts grocs i vermells al mapa.

Posi el ratolí al punt desitjat per veure el nom de l'estació.

Feu clic per veure les observacions i els pronòstics meteorològics.

Per canviar el mapa: feu clic els botons verds amb una creu de color negre per apropar; al botó verd amb un guió per allunyar la imatge; o en les fletxes verdes per a mapes adjacents.


METAR-TAF: